EVERETT DAM ON PISCATAOUOG R: From 09/05/2018 05:00 to 09/19/2018 18:00

Date LAKE ELEVATION [FT] PRECIPITATION INCREMENT [IN] RESERVOIR RELEASES [CFS] TAILWATER STAGE [FT]
09/19/2018 09:00 -- 0.00 -- --
09/19/2018 08:00 341.33 0.00 -- --
09/19/2018 07:00 341.33 0.00 -- --
09/19/2018 06:00 341.33 0.00 -- --
09/19/2018 05:00 341.33 0.00 -- --
09/19/2018 04:00 341.30 0.00 -- --
09/19/2018 03:00 341.30 0.01 -- --
09/19/2018 02:00 341.30 0.00 -- 5.55
09/19/2018 01:00 341.27 0.00 -- 5.52
09/19/2018 00:00 341.27 0.00 -- 5.52
09/18/2018 23:00 341.24 0.00 -- 5.50
09/18/2018 22:00 341.24 0.00 -- 5.50
09/18/2018 21:00 341.21 0.00 -- 5.48
09/18/2018 20:00 341.18 0.00 85.4 5.47
09/18/2018 19:00 341.18 0.00 81.8 5.45
09/18/2018 18:00 341.15 0.00 78.3 5.43
09/18/2018 17:00 341.12 0.00 74.8 5.41
09/18/2018 16:00 341.09 0.00 71.4 5.39
09/18/2018 15:00 341.06 0.00 65.3 5.35
09/18/2018 14:00 341.00 0.00 61.1 5.32
09/18/2018 13:00 340.97 0.00 58.4 5.30
09/18/2018 12:00 340.94 0.00 54.5 5.27
09/18/2018 11:00 340.91 0.00 49.6 5.23
09/18/2018 10:00 340.85 0.00 -- --
09/18/2018 09:00 340.82 0.00 42.7 5.17
09/18/2018 08:00 340.79 0.00 39.6 5.14
09/18/2018 07:00 340.76 0.10 38.6 5.13
09/18/2018 06:00 340.73 0.08 -- --
09/18/2018 05:00 340.73 0.22 34.7 5.09
09/18/2018 04:00 340.70 0.29 32.9 5.07
09/18/2018 03:00 340.67 0.17 31.1 5.05
09/18/2018 02:00 340.67 0.05 29.4 5.03
09/18/2018 01:00 340.67 0.03 29.4 5.03
09/18/2018 00:00 340.67 0.00 30.2 5.04
09/17/2018 23:00 340.67 0.05 30.2 5.04
09/17/2018 22:00 340.67 0.01 30.2 5.04
09/17/2018 21:00 340.67 0.02 30.2 5.04
09/17/2018 20:00 340.67 0.00 30.2 5.04
09/17/2018 19:00 340.67 0.00 30.2 5.04
09/17/2018 18:00 340.67 0.00 30.2 5.04
09/17/2018 17:00 340.67 0.00 30.2 5.04
09/17/2018 16:00 340.67 0.00 31.1 5.05
09/17/2018 15:00 340.70 0.00 31.1 5.05
09/17/2018 14:00 340.70 0.00 31.1 5.05
09/17/2018 13:00 340.70 0.00 31.1 5.05
09/17/2018 12:00 340.70 0.00 31.1 5.05
09/17/2018 11:00 340.70 0.00 32.0 5.06
09/17/2018 10:00 340.70 0.00 32.0 5.06
09/17/2018 09:00 340.70 0.00 32.0 5.06
09/17/2018 08:00 340.70 0.00 32.9 5.07
09/17/2018 07:00 340.70 0.00 32.9 5.07
09/17/2018 06:00 340.70 0.00 33.8 5.08
09/17/2018 05:00 340.73 0.00 33.8 5.08
09/17/2018 04:00 340.73 0.00 33.8 5.08
09/17/2018 03:00 340.73 0.00 33.8 5.08
09/17/2018 02:00 340.73 0.00 34.7 5.09
09/17/2018 01:00 340.73 0.00 34.7 5.09
09/17/2018 00:00 340.73 0.00 35.7 5.10
09/16/2018 23:00 340.73 0.00 35.7 5.10
09/16/2018 22:00 340.76 0.00 35.7 5.10
09/16/2018 21:00 340.76 0.00 36.6 5.11
09/16/2018 20:00 340.76 0.00 36.6 5.11
09/16/2018 19:00 340.76 0.00 36.6 5.11
09/16/2018 18:00 340.76 0.00 36.6 5.11
09/16/2018 17:00 340.76 0.00 37.6 5.12
09/16/2018 16:00 340.76 0.00 37.6 5.12
09/16/2018 15:00 340.76 0.00 37.6 5.12
09/16/2018 14:00 340.76 0.00 38.6 5.13
09/16/2018 13:00 340.76 0.00 38.6 5.13
09/16/2018 12:00 340.79 0.00 38.6 5.13
09/16/2018 11:00 340.79 0.00 39.6 5.14
09/16/2018 10:00 340.79 0.00 39.6 5.14
09/16/2018 09:00 340.79 0.00 39.6 5.14
09/16/2018 08:00 340.79 0.00 40.6 5.15
09/16/2018 07:00 340.82 0.00 40.6 5.15
09/16/2018 06:00 340.82 0.00 41.7 5.16
09/16/2018 05:00 340.82 0.00 41.7 5.16
09/16/2018 04:00 340.82 0.00 42.7 5.17
09/16/2018 03:00 340.82 0.00 42.7 5.17
09/16/2018 02:00 340.82 0.00 42.7 5.17
09/16/2018 01:00 340.85 0.00 43.8 5.18
09/16/2018 00:00 340.85 0.00 43.8 5.18
09/15/2018 23:00 340.85 0.00 44.9 5.19
09/15/2018 22:00 340.85 0.00 44.9 5.19
09/15/2018 21:00 340.85 0.00 46.0 5.20
09/15/2018 20:00 340.85 0.01 46.0 5.20
09/15/2018 19:00 340.88 0.00 46.0 5.20
09/15/2018 18:00 340.88 0.00 46.0 5.20
09/15/2018 17:00 340.88 0.00 47.2 5.21
09/15/2018 16:00 340.88 0.00 48.4 5.22
09/15/2018 15:00 340.88 0.00 47.2 5.21
09/15/2018 14:00 340.88 0.00 48.4 5.22
09/15/2018 13:00 340.88 0.00 48.4 5.22
09/15/2018 12:00 340.88 0.00 49.6 5.23
09/15/2018 11:00 340.91 0.00 50.8 5.24
09/15/2018 10:00 340.91 0.00 50.8 5.24
09/15/2018 09:00 340.91 0.00 50.8 5.24
09/15/2018 08:00 340.94 0.00 52.0 5.25
09/15/2018 07:00 340.94 0.00 53.3 5.26
09/15/2018 06:00 340.94 0.00 53.3 5.26
09/15/2018 05:00 340.94 0.00 53.3 5.26
09/15/2018 04:00 340.94 0.00 54.5 5.27
09/15/2018 03:00 340.94 0.00 54.5 5.27
09/15/2018 02:00 340.97 0.00 55.8 5.28
09/15/2018 01:00 340.97 0.00 55.8 5.28
09/15/2018 00:00 340.97 0.00 57.1 5.29
09/14/2018 23:00 340.97 0.00 58.4 5.30
09/14/2018 22:00 341.00 0.00 59.8 5.31
09/14/2018 21:00 341.00 0.00 59.8 5.31
09/14/2018 20:00 341.00 0.00 61.1 5.32
09/14/2018 19:00 341.00 0.00 61.1 5.32
09/14/2018 18:00 341.00 0.00 61.1 5.32
09/14/2018 17:00 341.03 0.00 62.5 5.33
09/14/2018 16:00 341.03 0.00 62.5 5.33
09/14/2018 15:00 341.03 0.00 63.9 5.34
09/14/2018 14:00 341.06 0.00 65.3 5.35
09/14/2018 13:00 341.06 0.00 65.3 5.35
09/14/2018 12:00 341.06 0.00 66.8 5.36
09/14/2018 11:00 341.06 0.00 66.8 5.36
09/14/2018 10:00 341.09 0.00 68.2 5.37
09/14/2018 09:00 341.09 0.00 69.8 5.38
09/14/2018 08:00 341.09 0.00 69.8 5.38
09/14/2018 07:00 341.12 0.00 71.4 5.39
09/14/2018 06:00 341.12 0.00 73.1 5.40
09/14/2018 05:00 341.12 0.00 73.1 5.40
09/14/2018 04:00 341.12 0.00 74.8 5.41
09/14/2018 03:00 341.15 0.00 76.5 5.42
09/14/2018 02:00 341.15 0.00 78.3 5.43
09/14/2018 01:00 341.15 0.00 78.3 5.43
09/14/2018 00:00 341.18 0.00 80.0 5.44
09/13/2018 23:00 341.18 0.00 81.8 5.45
09/13/2018 22:00 341.18 0.00 81.8 5.45
09/13/2018 21:00 341.21 0.00 81.8 5.45
09/13/2018 20:00 341.21 0.01 85.4 5.47
09/13/2018 19:00 341.21 0.00 85.4 5.47
09/13/2018 18:00 341.21 0.00 87.3 5.48
09/13/2018 17:00 341.24 0.00 89.3 5.49
09/13/2018 16:00 341.24 0.00 91.2 5.50
09/13/2018 15:00 341.24 0.00 89.3 5.49
09/13/2018 14:00 341.24 0.00 93.2 5.51
09/13/2018 13:00 341.27 0.00 95.2 5.52
09/13/2018 12:00 341.27 0.00 95.2 5.52
09/13/2018 11:00 341.30 0.00 95.2 5.52
09/13/2018 10:00 341.30 0.00 97.2 5.53
09/13/2018 09:00 341.30 0.00 99.2 5.54
09/13/2018 08:00 341.33 0.00 101.2 5.55
09/13/2018 07:00 341.33 0.00 103.3 5.56
09/13/2018 06:00 341.33 0.00 103.3 5.56
09/13/2018 05:00 341.36 0.00 105.4 5.57
09/13/2018 04:00 341.36 0.00 105.4 5.57
09/13/2018 03:00 341.36 0.00 107.5 5.58
09/13/2018 02:00 341.39 0.00 109.6 5.59
09/13/2018 01:00 341.39 0.02 109.6 5.59
09/13/2018 00:00 341.42 0.00 111.8 5.60
09/12/2018 23:00 341.42 0.01 113.9 5.61
09/12/2018 22:00 341.42 0.00 116.1 5.62
09/12/2018 21:00 341.42 0.00 118.3 5.63
09/12/2018 20:00 341.45 0.00 118.3 5.63
09/12/2018 19:00 341.45 0.00 118.3 5.63
09/12/2018 18:00 341.45 0.00 122.8 5.65
09/12/2018 17:00 341.48 0.00 122.8 5.65
09/12/2018 16:00 341.48 0.00 122.8 5.65
09/12/2018 15:00 341.48 0.00 125.1 5.66
09/12/2018 14:00 341.48 0.00 125.1 5.66
09/12/2018 13:00 341.48 0.01 125.1 5.66
09/12/2018 12:00 341.48 0.01 125.1 5.66
09/12/2018 11:00 341.48 0.04 125.1 5.66
09/12/2018 10:00 341.48 0.00 127.3 5.67
09/12/2018 09:00 341.48 0.00 127.3 5.67
09/12/2018 08:00 341.48 0.04 127.3 5.67
09/12/2018 07:00 341.48 0.01 127.3 5.67
09/12/2018 06:00 341.48 0.00 127.3 5.67
09/12/2018 05:00 341.48 0.00 127.3 5.67
09/12/2018 04:00 341.48 0.00 127.3 5.67
09/12/2018 03:00 341.48 0.01 125.1 5.66
09/12/2018 02:00 341.48 0.01 127.3 5.67
09/12/2018 01:00 341.48 0.00 125.1 5.66
09/12/2018 00:00 341.48 0.00 122.8 5.65
09/11/2018 23:00 341.48 0.00 122.8 5.65
09/11/2018 22:00 341.45 0.00 122.8 5.65
09/11/2018 21:00 341.45 0.00 118.3 5.63
09/11/2018 20:00 341.45 0.00 118.3 5.63
09/11/2018 19:00 341.42 0.00 116.1 5.62
09/11/2018 18:00 341.42 0.00 113.9 5.61
09/11/2018 17:00 341.39 0.00 109.6 5.59
09/11/2018 16:00 341.36 0.00 105.4 5.57
09/11/2018 15:00 341.33 0.00 103.3 5.56
09/11/2018 14:00 341.30 0.00 99.2 5.54
09/11/2018 13:00 341.27 0.00 89.3 5.49
09/11/2018 12:00 341.24 0.00 89.3 5.49
09/11/2018 11:00 341.18 0.00 -- --
09/11/2018 10:00 341.15 0.00 78.3 5.43
09/11/2018 09:00 341.12 0.00 71.4 5.39
09/11/2018 08:00 341.06 0.00 65.3 5.35
09/11/2018 07:00 341.00 0.00 58.4 5.30
09/11/2018 06:00 340.94 0.00 52.0 5.25
09/11/2018 05:00 340.88 0.00 46.0 5.20
09/11/2018 04:00 340.79 0.00 40.6 5.15
09/11/2018 03:00 340.73 0.00 33.8 5.08
09/11/2018 02:00 340.67 0.00 28.5 5.02
09/11/2018 01:00 340.58 0.02 23.8 4.96
09/11/2018 00:00 340.55 0.17 20.2 4.91
09/10/2018 23:00 340.49 0.07 16.7 4.86
09/10/2018 22:00 340.46 0.20 14.8 4.83
09/10/2018 21:00 340.43 0.18 13.0 4.80
09/10/2018 20:00 340.40 0.22 12.0 4.78
09/10/2018 19:00 340.37 0.17 11.1 4.76
09/10/2018 18:00 340.34 0.09 10.2 4.74
09/10/2018 17:00 340.34 0.08 9.8 4.73
09/10/2018 16:00 340.31 0.19 9.8 4.73
09/10/2018 15:00 340.31 0.08 9.3 4.72
09/10/2018 14:00 340.28 0.04 8.9 4.71
09/10/2018 13:00 340.28 0.02 8.9 4.71
09/10/2018 12:00 340.28 0.01 -- --
09/10/2018 11:00 340.28 0.00 8.9 4.71
09/10/2018 10:00 340.28 0.00 8.9 4.71
09/10/2018 09:00 340.28 0.00 8.6 4.70
09/10/2018 08:00 340.28 0.00 8.9 4.71
09/10/2018 07:00 340.31 0.00 8.9 4.71
09/10/2018 06:00 340.31 0.00 8.9 4.71
09/10/2018 05:00 340.31 0.00 8.9 4.71
09/10/2018 04:00 340.31 0.00 8.9 4.71
09/10/2018 03:00 340.31 0.00 9.3 4.72
09/10/2018 02:00 340.31 0.00 9.3 4.72
09/10/2018 01:00 340.31 0.00 9.3 4.72
09/10/2018 00:00 340.31 0.00 9.3 4.72
09/09/2018 23:00 340.31 0.00 9.3 4.72
09/09/2018 22:00 340.31 0.00 9.3 4.72
09/09/2018 21:00 340.31 0.00 9.3 4.72
09/09/2018 20:00 340.31 0.00 9.3 4.72
09/09/2018 19:00 340.31 0.00 9.3 4.72
09/09/2018 18:00 340.31 0.00 9.8 4.73
09/09/2018 17:00 340.31 0.00 9.8 4.73
09/09/2018 16:00 340.31 0.00 9.8 4.73
09/09/2018 15:00 340.34 0.00 9.8 4.73
09/09/2018 14:00 340.34 0.00 9.8 4.73
09/09/2018 13:00 340.34 0.00 9.8 4.73
09/09/2018 12:00 340.34 0.00 9.8 4.73
09/09/2018 11:00 340.34 0.00 9.8 4.73
09/09/2018 10:00 340.34 0.00 9.8 4.73
09/09/2018 09:00 340.34 0.00 9.8 4.73
09/09/2018 08:00 340.34 0.00 10.2 4.74
09/09/2018 07:00 340.34 0.00 10.2 4.74
09/09/2018 06:00 340.34 0.00 10.2 4.74
09/09/2018 05:00 340.34 0.00 10.2 4.74
09/09/2018 04:00 340.34 0.00 10.2 4.74
09/09/2018 03:00 340.34 0.00 10.2 4.74
09/09/2018 02:00 340.34 0.00 10.6 4.75
09/09/2018 01:00 340.34 0.00 10.6 4.75
09/09/2018 00:00 340.34 0.00 10.6 4.75
09/08/2018 23:00 340.37 0.00 10.6 4.75
09/08/2018 22:00 340.37 0.00 10.6 4.75
09/08/2018 21:00 340.37 0.00 10.6 4.75
09/08/2018 20:00 340.37 0.00 10.6 4.75
09/08/2018 19:00 340.37 0.00 -- --
09/08/2018 18:00 340.37 0.00 -- --
09/08/2018 17:00 340.37 0.00 -- --
09/08/2018 16:00 340.37 0.00 -- --
09/08/2018 15:00 340.37 0.00 -- --
09/08/2018 14:00 340.37 0.00 -- --
09/08/2018 13:00 340.38 0.00 -- --
09/08/2018 12:00 340.38 0.00 -- --
09/08/2018 11:00 340.38 0.00 -- --
09/08/2018 10:00 340.38 0.00 -- --
09/08/2018 09:00 340.38 0.00 -- --
09/08/2018 08:00 340.38 0.00 -- --
09/08/2018 07:00 340.38 0.00 -- --
09/08/2018 06:00 340.38 0.00 -- --
09/08/2018 05:00 340.38 0.00 -- --
09/08/2018 04:00 340.38 0.00 -- --
09/08/2018 03:00 340.38 0.00 -- --
09/08/2018 02:00 340.38 0.00 -- --
09/08/2018 01:00 340.38 0.00 -- --
09/08/2018 00:00 340.38 0.00 -- --
09/07/2018 23:00 340.39 0.00 -- --
09/07/2018 22:00 340.39 0.00 -- --
09/07/2018 21:00 340.39 0.00 -- --
09/07/2018 20:00 340.39 0.00 -- --
09/07/2018 19:00 340.39 0.00 -- --
09/07/2018 18:00 340.39 0.00 -- --
09/07/2018 17:00 340.39 0.00 -- --
09/07/2018 16:00 340.39 0.00 -- --
09/07/2018 15:00 340.39 0.00 -- --
09/07/2018 14:00 340.39 0.00 -- --
09/07/2018 13:00 340.39 0.00 -- --
09/07/2018 12:00 340.39 0.00 -- --
09/07/2018 11:00 340.39 0.00 -- --
09/07/2018 10:00 340.40 0.00 -- --
09/07/2018 09:00 340.40 0.00 -- --
09/07/2018 08:00 340.40 0.00 -- --
09/07/2018 07:00 340.40 0.00 -- --
09/07/2018 06:00 340.40 0.00 -- --
09/07/2018 05:00 340.40 0.00 -- --
09/07/2018 04:00 340.40 0.00 -- --
09/07/2018 03:00 340.40 0.00 12.4 4.79
09/07/2018 02:00 340.40 0.00 12.0 4.78
09/07/2018 01:00 340.40 0.00 12.4 4.79
09/07/2018 00:00 340.40 0.00 12.4 4.79
09/06/2018 23:00 340.40 0.00 12.4 4.79
09/06/2018 22:00 340.40 0.00 12.4 4.79
09/06/2018 21:00 340.40 0.00 12.4 4.79
09/06/2018 20:00 340.40 0.00 12.0 4.78
09/06/2018 19:00 340.40 0.00 12.0 4.78
09/06/2018 18:00 340.40 0.00 12.0 4.78
09/06/2018 17:00 340.40 0.00 12.0 4.78
09/06/2018 16:00 340.40 0.00 12.0 4.78
09/06/2018 15:00 340.40 0.00 12.0 4.78
09/06/2018 14:00 340.40 0.00 12.0 4.78
09/06/2018 13:00 340.40 0.00 12.0 4.78
09/06/2018 12:00 340.40 0.01 -- --
09/06/2018 11:00 340.40 0.15 12.0 4.78
09/06/2018 10:00 340.40 0.00 12.0 4.78
09/06/2018 09:00 340.37 0.00 11.5 4.77
09/06/2018 08:00 340.37 0.00 11.5 4.77
09/06/2018 07:00 340.37 0.00 11.5 4.77
09/06/2018 06:00 340.37 0.00 11.5 4.77
09/06/2018 05:00 340.37 0.00 11.5 4.77
09/06/2018 04:00 340.37 0.00 11.5 4.77
09/06/2018 03:00 340.37 0.00 11.5 4.77
09/06/2018 02:00 340.37 0.00 11.5 4.77
09/06/2018 01:00 340.37 0.00 11.5 4.77
09/06/2018 00:00 340.37 0.00 11.5 4.77
09/05/2018 23:00 340.37 0.00 11.5 4.77
09/05/2018 22:00 340.37 0.00 11.5 4.77
09/05/2018 21:00 340.37 0.00 11.5 4.77
09/05/2018 20:00 340.37 0.00 11.5 4.77
09/05/2018 19:00 340.40 0.00 11.5 4.77
09/05/2018 18:00 340.40 0.00 11.5 4.77
09/05/2018 17:00 340.40 0.00 11.5 4.77
09/05/2018 16:00 340.37 0.00 11.5 4.77
09/05/2018 15:00 340.40 0.00 11.5 4.77
09/05/2018 14:00 340.37 0.00 11.5 4.77
09/05/2018 13:00 -- -- -- --
09/05/2018 12:00 -- -- -- --
09/05/2018 11:00 -- -- -- --
09/05/2018 10:00 -- -- -- --
09/05/2018 09:00 -- -- -- --
09/05/2018 08:00 -- -- -- --
09/05/2018 07:00 -- -- -- --
09/05/2018 06:00 -- -- -- --
09/05/2018 05:00 -- -- -- --